Time;durP1;ratioP1;P1;durP2;ratioP2;P2;SDS_P1;SDS_P2;PMS_P1;PMS_P2;Temp;Humidity;BMP_temperature;BMP_pressure;BME280_temperature;BME280_humidity;BME280_pressure;Samples;Min_cycle;Max_cycle;Signal;HPM_P1;HPM_P2
2023/01/10 04:01:51;;;;;;;0.77;0.30;;;16.90;52.20;;;;;;5214582;23;45978;-57
2023/01/10 04:04:17;;;;;;;0.82;0.50;;;16.90;52.20;;;;;;4887584;28;46090;-56
2023/01/10 04:06:42;;;;;;;0.30;0.30;;;16.90;52.10;;;;;;4908695;28;45504;-56
2023/01/10 04:09:08;;;;;;;0.57;0.50;;;16.90;52.20;;;;;;4911271;28;44904;-55
2023/01/10 04:11:34;;;;;;;0.50;0.50;;;16.90;52.20;;;;;;4909849;28;46107;-52
2023/01/10 04:13:59;;;;;;;0.65;0.30;;;16.80;52.20;;;;;;4907073;28;45170;-51
2023/01/10 04:16:25;;;;;;;0.88;0.50;;;16.80;52.20;;;;;;4910181;28;45338;-55
2023/01/10 04:18:50;;;;;;;0.40;0.40;;;16.80;52.20;;;;;;4904664;28;45719;-53
2023/01/10 04:21:16;;;;;;;0.85;0.60;;;16.80;52.20;;;;;;4908454;28;44968;-54
2023/01/10 04:23:41;;;;;;;0.80;0.60;;;16.80;52.20;;;;;;4910685;28;44688;-57
2023/01/10 04:26:07;;;;;;;0.88;0.35;;;16.80;52.20;;;;;;4913327;28;45217;-53
2023/01/10 04:28:32;;;;;;;0.50;0.50;;;16.80;52.20;;;;;;4907372;28;45649;-55
2023/01/10 04:30:58;;;;;;;0.55;0.55;;;16.70;52.20;;;;;;4908356;28;45300;-53
2023/01/10 04:33:24;;;;;;;0.45;0.40;;;16.80;52.30;;;;;;4905114;28;44840;-51
2023/01/10 04:35:50;;;;;;;0.40;0.38;;;16.70;52.20;;;;;;4908341;28;45220;-60
2023/01/10 04:38:15;;;;;;;0.32;0.32;;;16.70;52.20;;;;;;4910787;28;46715;-54
2023/01/10 04:40:41;;;;;;;0.40;0.40;;;16.70;52.20;;;;;;4908533;28;45141;-56
2023/01/10 04:43:07;;;;;;;0.30;0.30;;;16.70;52.30;;;;;;4901544;28;46143;-53
2023/01/10 04:45:33;;;;;;;0.45;0.38;;;16.70;52.20;;;;;;4903701;28;45335;-58
2023/01/10 04:47:59;;;;;;;0.52;0.40;;;16.70;52.20;;;;;;4908444;28;45218;-58
2023/01/10 04:50:24;;;;;;;0.22;0.22;;;16.70;52.20;;;;;;4910627;28;46331;-54
2023/01/10 04:52:50;;;;;;;0.30;0.30;;;16.70;52.20;;;;;;4912053;28;45493;-56
2023/01/10 04:55:15;;;;;;;0.50;0.50;;;16.70;52.20;;;;;;4909190;28;45496;-52
2023/01/10 04:57:41;;;;;;;0.60;0.60;;;16.70;52.30;;;;;;4911759;28;45199;-56
2023/01/10 05:00:08;;;;;;;0.85;0.40;;;16.70;52.30;;;;;;4911840;28;45611;-54
2023/01/10 05:02:33;;;;;;;0.65;0.63;;;16.70;52.20;;;;;;4910310;28;45277;-54
2023/01/10 05:04:59;;;;;;;0.40;0.40;;;16.70;52.20;;;;;;4924726;28;45736;-54
2023/01/10 05:07:25;;;;;;;0.63;0.40;;;16.60;52.20;;;;;;4912828;28;45549;-57
2023/01/10 05:09:50;;;;;;;0.40;0.40;;;16.60;52.30;;;;;;4909902;28;45945;-51
2023/01/10 05:12:16;;;;;;;0.60;0.60;;;16.60;52.30;;;;;;4910726;28;45265;-58
2023/01/10 05:14:41;;;;;;;0.70;0.50;;;16.60;52.30;;;;;;4907349;28;44690;-58
2023/01/10 05:17:07;;;;;;;0.47;0.40;;;16.60;52.20;;;;;;4911199;28;47750;-53
2023/01/10 05:19:32;;;;;;;0.40;0.40;;;16.60;52.20;;;;;;4915045;28;46841;-57
2023/01/10 05:21:58;;;;;;;0.40;0.40;;;16.60;52.20;;;;;;4912966;28;45561;-54
2023/01/10 05:24:23;;;;;;;0.80;0.40;;;16.60;52.30;;;;;;4913509;28;46005;-55
2023/01/10 05:26:49;;;;;;;0.68;0.50;;;16.60;52.20;;;;;;4912205;28;45265;-54
2023/01/10 05:29:14;;;;;;;0.52;0.45;;;16.60;52.20;;;;;;4911522;28;47220;-54
2023/01/10 05:31:40;;;;;;;0.30;0.30;;;16.60;52.30;;;;;;4905600;28;48374;-53
2023/01/10 05:34:06;;;;;;;0.77;0.43;;;16.50;52.30;;;;;;4916700;28;45040;-57
2023/01/10 05:36:31;;;;;;;0.50;0.40;;;16.60;52.30;;;;;;4913485;28;44873;-54
2023/01/10 05:38:57;;;;;;;0.40;0.32;;;16.60;52.30;;;;;;4907370;28;46138;-52
2023/01/10 05:41:22;;;;;;;0.55;0.40;;;16.60;52.30;;;;;;4908449;28;45627;-56
2023/01/10 05:43:48;;;;;;;0.47;0.40;;;16.60;52.30;;;;;;4910135;28;45353;-52
2023/01/10 05:46:14;;;;;;;0.30;0.30;;;16.50;52.30;;;;;;4913111;28;44988;-53
2023/01/10 05:48:40;;;;;;;0.40;0.40;;;16.50;52.30;;;;;;4910198;28;45441;-54
2023/01/10 05:51:05;;;;;;;0.30;0.30;;;16.50;52.30;;;;;;4910214;28;45325;-54
2023/01/10 05:53:31;;;;;;;0.40;0.40;;;16.50;52.30;;;;;;4914287;28;45569;-58
2023/01/10 05:55:58;;;;;;;0.63;0.30;;;16.50;52.30;;;;;;4911373;28;45253;-54
2023/01/10 05:58:23;;;;;;;0.55;0.40;;;16.50;52.30;;;;;;4910592;28;47902;-52
2023/01/10 06:00:49;;;;;;;0.52;0.40;;;16.50;52.30;;;;;;4910530;28;45537;-60
2023/01/10 06:03:14;;;;;;;0.55;0.40;;;16.50;52.30;;;;;;4926663;28;45266;-50
2023/01/10 06:05:40;;;;;;;0.40;0.40;;;16.50;52.30;;;;;;4924971;28;45170;-52
2023/01/10 06:08:05;;;;;;;0.52;0.47;;;16.50;52.30;;;;;;4913671;28;45989;-55
2023/01/10 06:10:31;;;;;;;0.40;0.40;;;16.40;52.30;;;;;;4930879;28;45660;-56
2023/01/10 06:12:56;;;;;;;0.50;0.40;;;16.40;52.20;;;;;;4930014;28;45194;-51
2023/01/10 06:15:22;;;;;;;0.40;0.40;;;16.40;52.30;;;;;;4932402;28;45449;-54
2023/01/10 06:17:47;;;;;;;0.43;0.38;;;16.50;52.30;;;;;;4930092;28;47111;-56
2023/01/10 06:20:13;;;;;;;0.40;0.40;;;16.40;52.30;;;;;;4931485;28;46170;-53
2023/01/10 06:22:41;;;;;;;0.65;0.50;;;16.40;52.20;;;;;;4926765;28;45403;-57
2023/01/10 06:25:07;;;;;;;0.63;0.50;;;16.40;52.30;;;;;;4927315;28;45575;-58
2023/01/10 06:27:32;;;;;;;0.40;0.40;;;16.40;52.30;;;;;;4929944;28;45920;-52
2023/01/10 06:30:00;;;;;;;0.63;0.40;;;16.40;52.30;;;;;;4929137;28;45812;-53
2023/01/10 06:32:26;;;;;;;0.52;0.40;;;16.40;52.30;;;;;;4913840;28;45618;-56
2023/01/10 06:34:51;;;;;;;0.50;0.20;;;16.40;52.30;;;;;;4907821;28;45294;-54
2023/01/10 06:37:17;;;;;;;0.50;0.50;;;16.40;52.30;;;;;;4922961;28;45183;-57
2023/01/10 06:39:45;;;;;;;0.60;0.40;;;16.40;52.30;;;;;;4921732;28;45454;-58
2023/01/10 06:42:11;;;;;;;1.08;0.50;;;16.40;52.30;;;;;;4909467;28;45845;-57
2023/01/10 06:44:36;;;;;;;0.30;0.30;;;16.30;52.30;;;;;;4930735;28;45433;-54
2023/01/10 06:47:02;;;;;;;0.70;0.40;;;16.30;52.30;;;;;;4925055;28;46401;-55
2023/01/10 06:49:28;;;;;;;0.43;0.40;;;16.30;52.30;;;;;;4911972;28;45725;-53
2023/01/10 06:51:54;;;;;;;0.45;0.40;;;16.30;52.20;;;;;;4929140;28;45616;-55
2023/01/10 06:54:19;;;;;;;0.40;0.40;;;16.30;52.30;;;;;;4913516;28;45011;-57
2023/01/10 06:56:47;;;;;;;0.50;0.50;;;16.30;52.30;;;;;;4931341;28;46038;-53
2023/01/10 06:59:13;;;;;;;0.40;0.40;;;16.30;52.30;;;;;;4929986;28;45498;-54
2023/01/10 07:01:38;;;;;;;1.30;0.30;;;16.30;52.20;;;;;;4929032;28;45553;-55
2023/01/10 07:04:04;;;;;;;0.50;0.47;;;16.40;52.10;;;;;;4928379;28;45385;-54
2023/01/10 07:06:30;;;;;;;0.32;0.30;;;16.50;52.20;;;;;;4930565;28;48160;-54
2023/01/10 07:08:55;;;;;;;0.70;0.50;;;16.60;51.90;;;;;;4930719;28;45595;-53
2023/01/10 07:11:21;;;;;;;1.02;0.40;;;16.70;51.60;;;;;;4926036;28;45279;-55
2023/01/10 07:13:46;;;;;;;0.30;0.30;;;16.90;51.40;;;;;;4928693;28;45253;-55
2023/01/10 07:16:13;;;;;;;0.32;0.32;;;17.10;51.20;;;;;;4922626;28;46178;-54
2023/01/10 07:18:39;;;;;;;0.38;0.35;;;17.20;51.00;;;;;;4909088;28;44698;-52
2023/01/10 07:21:05;;;;;;;0.60;0.40;;;17.40;50.90;;;;;;4930469;28;45324;-50
2023/01/10 07:23:31;;;;;;;0.55;0.47;;;17.50;50.70;;;;;;4927554;28;45608;-53
2023/01/10 07:25:57;;;;;;;0.30;0.30;;;17.60;50.50;;;;;;4927111;28;45111;-54
2023/01/10 07:28:23;;;;;;;0.30;0.30;;;17.80;50.40;;;;;;4927594;28;45012;-53
2023/01/10 07:30:48;;;;;;;0.65;0.50;;;17.90;50.30;;;;;;4930080;28;45048;-52
2023/01/10 07:33:14;;;;;;;0.30;0.30;;;18.10;50.20;;;;;;4925057;28;45574;-52
2023/01/10 07:35:40;;;;;;;0.28;0.28;;;18.20;50.10;;;;;;4925449;28;46042;-52
2023/01/10 07:38:05;;;;;;;0.30;0.30;;;18.30;50.00;;;;;;4925946;28;44952;-57
2023/01/10 07:40:31;;;;;;;0.93;0.30;;;18.40;49.80;;;;;;4928521;28;45532;-57
2023/01/10 07:42:57;;;;;;;0.40;0.38;;;18.60;49.80;;;;;;4929154;28;45274;-53
2023/01/10 07:45:23;;;;;;;0.20;0.20;;;18.70;49.70;;;;;;4925654;28;45890;-54
2023/01/10 07:47:48;;;;;;;0.35;0.35;;;18.80;49.60;;;;;;4927974;28;45504;-53
2023/01/10 07:50:15;;;;;;;0.17;0.17;;;18.90;49.40;;;;;;4925004;28;45165;-54
2023/01/10 07:52:40;;;;;;;0.45;0.30;;;19.10;49.30;;;;;;4927598;28;45784;-54
2023/01/10 07:55:06;;;;;;;0.43;0.35;;;19.20;49.20;;;;;;4924829;28;46086;-53
2023/01/10 07:57:32;;;;;;;0.45;0.30;;;19.30;49.10;;;;;;4926464;28;45370;-50
2023/01/10 07:59:57;;;;;;;0.55;0.20;;;19.40;49.00;;;;;;4924188;28;45250;-51
2023/01/10 08:02:23;;;;;;;0.30;0.20;;;19.50;48.80;;;;;;4929146;28;45489;-53
2023/01/10 08:04:48;;;;;;;0.38;0.28;;;19.60;48.70;;;;;;4928074;28;45178;-54
2023/01/10 08:07:14;;;;;;;0.57;0.30;;;19.80;48.80;;;;;;4927063;28;45256;-54
2023/01/10 08:09:39;;;;;;;0.30;0.30;;;19.90;48.60;;;;;;4929730;28;44918;-55
2023/01/10 08:12:05;;;;;;;0.30;0.28;;;20.00;48.40;;;;;;4929288;28;45619;-55
2023/01/10 08:14:30;;;;;;;0.52;0.30;;;20.10;48.30;;;;;;4930422;28;46016;-51
2023/01/10 08:16:56;;;;;;;0.40;0.20;;;20.20;48.20;;;;;;4926378;28;45075;-52
2023/01/10 08:19:21;;;;;;;0.73;0.30;;;20.10;48.10;;;;;;4923874;28;45539;-54
2023/01/10 08:21:47;;;;;;;0.30;0.30;;;20.10;48.20;;;;;;4924663;28;45369;-58
2023/01/10 08:24:12;;;;;;;0.43;0.30;;;20.20;48.30;;;;;;4930330;28;47020;-52
2023/01/10 08:26:38;;;;;;;0.20;0.20;;;20.20;48.20;;;;;;4928582;28;45630;-53
2023/01/10 08:29:04;;;;;;;0.40;0.40;;;20.30;48.10;;;;;;4911990;28;45532;-54
2023/01/10 08:31:29;;;;;;;0.30;0.20;;;20.40;48.00;;;;;;4925603;28;45241;-53
2023/01/10 08:33:55;;;;;;;0.40;0.30;;;20.60;47.90;;;;;;4925301;28;47050;-59
2023/01/10 08:36:21;;;;;;;0.20;0.20;;;20.60;47.80;;;;;;4925590;28;45489;-54
2023/01/10 08:38:46;;;;;;;2.50;0.20;;;20.70;47.70;;;;;;4928093;28;45319;-53
2023/01/10 08:41:12;;;;;;;0.30;0.30;;;20.90;47.60;;;;;;4924264;28;45472;-58
2023/01/10 08:43:39;;;;;;;0.47;0.20;;;21.00;47.50;;;;;;4928777;28;46117;-56
2023/01/10 08:46:05;;;;;;;0.25;0.25;;;21.10;47.40;;;;;;4926439;28;45291;-55
2023/01/10 08:48:30;;;;;;;0.10;0.10;;;21.20;47.30;;;;;;4925506;28;45439;-55
2023/01/10 08:50:56;;;;;;;0.50;0.40;;;21.30;47.20;;;;;;4927427;28;45631;-54
2023/01/10 08:53:21;;;;;;;0.43;0.40;;;21.40;47.10;;;;;;4908127;28;47366;-57
2023/01/10 08:55:48;;;;;;;0.20;0.20;;;21.50;47.60;;;;;;4924429;28;45181;-53
2023/01/10 08:58:13;;;;;;;0.35;0.30;;;21.50;46.90;;;;;;4925535;28;45415;-55
2023/01/10 09:00:39;;;;;;;0.30;0.30;;;21.60;46.90;;;;;;4922582;28;45436;-52
2023/01/10 09:03:06;;;;;;;0.20;0.20;;;21.70;46.90;;;;;;4923724;28;46208;-56
2023/01/10 09:05:31;;;;;;;0.20;0.20;;;21.80;46.80;;;;;;4926607;28;45326;-53
2023/01/10 09:07:58;;;;;;;0.47;0.25;;;21.80;46.70;;;;;;4928151;28;45198;-57
2023/01/10 09:10:24;;;;;;;0.20;0.20;;;21.90;46.70;;;;;;4929659;28;45209;-56
2023/01/10 09:12:55;;;;;;;0.20;0.20;;;21.90;46.60;;;;;;4925075;28;46150;-58
2023/01/10 09:15:22;;;;;;;0.55;0.30;;;22.00;46.50;;;;;;4926976;28;45818;-59
2023/01/10 09:17:48;;;;;;;0.60;0.30;;;22.10;46.50;;;;;;4927654;28;45600;-56
2023/01/10 09:20:15;;;;;;;0.30;0.30;;;22.20;46.40;;;;;;4926265;28;45290;-57
2023/01/10 09:22:40;;;;;;;0.30;0.28;;;22.20;46.40;;;;;;4923429;28;45502;-55
2023/01/10 09:25:06;;;;;;;0.20;0.20;;;22.30;46.40;;;;;;4908842;28;45277;-56
2023/01/10 09:27:32;;;;;;;0.30;0.30;;;22.40;46.30;;;;;;4911310;28;44935;-52
2023/01/10 09:29:57;;;;;;;0.20;0.20;;;22.40;46.20;;;;;;4926876;28;45201;-55
2023/01/10 09:32:23;;;;;;;0.20;0.20;;;22.50;46.20;;;;;;4929486;28;46037;-54
2023/01/10 09:34:49;;;;;;;0.25;0.22;;;22.50;46.10;;;;;;4931831;28;45561;-55
2023/01/10 09:37:14;;;;;;;0.20;0.20;;;22.60;46.00;;;;;;4926959;28;45315;-53
2023/01/10 09:39:40;;;;;;;0.10;0.10;;;22.60;45.90;;;;;;4930022;28;45531;-57
2023/01/10 09:42:08;;;;;;;0.28;0.10;;;22.70;45.90;;;;;;4926691;28;46248;-55
2023/01/10 09:44:48;;;;;;;0.20;0.20;;;22.70;45.80;;;;;;4925700;28;45409;-55
2023/01/10 09:47:30;;;;;;;0.20;0.20;;;22.80;45.70;;;;;;4913624;28;45616;-57
2023/01/10 09:50:03;;;;;;;0.20;0.20;;;22.90;45.60;;;;;;4928873;28;45510;-56
2023/01/10 09:52:32;;;;;;;1.20;0.40;;;23.00;45.70;;;;;;4914670;28;45986;-58
2023/01/10 09:54:59;;;;;;;0.40;0.20;;;23.00;45.70;;;;;;4909285;28;45787;-56
2023/01/10 09:57:24;;;;;;;0.17;0.17;;;23.00;45.60;;;;;;4896384;28;45626;-54
2023/01/10 09:59:50;;;;;;;0.10;0.10;;;23.10;45.60;;;;;;4931851;28;45336;-59
2023/01/10 10:02:29;;;;;;;0.38;0.30;;;23.10;45.40;;;;;;4912033;28;46008;-55
2023/01/10 10:05:00;;;;;;;0.25;0.25;;;23.20;45.50;;;;;;4915039;28;45429;-56
2023/01/10 10:07:26;;;;;;;0.55;0.30;;;23.30;45.30;;;;;;4915470;28;45772;-55
2023/01/10 10:09:51;;;;;;;0.28;0.25;;;23.30;45.30;;;;;;4931683;28;45529;-55
2023/01/10 10:12:23;;;;;;;0.30;0.30;;;23.30;45.30;;;;;;4929605;28;46215;-53
2023/01/10 10:15:13;;;;;;;0.20;0.20;;;23.40;45.30;;;;;;4910823;28;44699;-54
2023/01/10 10:17:59;;;;;;;0.15;0.15;;;23.50;45.50;;;;;;4930798;28;45028;-55
2023/01/10 10:20:34;;;;;;;0.15;0.15;;;23.50;44.80;;;;;;4912558;28;44982;-55
2023/01/10 10:23:08;;;;;;;0.20;0.20;;;23.60;45.00;;;;;;4929760;28;45880;-55
2023/01/10 10:25:41;;;;;;;0.10;0.10;;;23.60;44.90;;;;;;4932339;28;45404;-54
2023/01/10 10:28:34;;;;;;;0.37;0.30;;;23.60;45.10;;;;;;4911432;28;45348;-53
2023/01/10 10:31:07;;;;;;;;;;;23.60;44.70;;;;;;4916989;28;45530;-55
2023/01/10 10:34:10;;;;;;;0.17;0.17;;;23.60;44.50;;;;;;4913779;28;46065;-56
2023/01/10 10:36:50;;;;;;;0.10;0.10;;;23.60;44.60;;;;;;4930633;28;45340;-55
2023/01/10 10:39:18;;;;;;;0.20;0.20;;;23.70;44.80;;;;;;4911758;28;45403;-54
2023/01/10 10:41:45;;;;;;;0.28;0.20;;;23.70;45.00;;;;;;4893277;28;45905;-56
2023/01/10 10:44:31;;;;;;;0.20;0.20;;;23.70;44.90;;;;;;4910863;28;47103;-53
2023/01/10 10:46:58;;;;;;;0.55;0.30;;;23.70;44.50;;;;;;4906976;28;45658;-54
2023/01/10 10:49:48;;;;;;;0.05;0.05;;;23.70;44.90;;;;;;4931357;28;45226;-55
2023/01/10 10:52:37;;;;;;;0.30;0.30;;;23.70;44.60;;;;;;4911826;28;44965;-53
2023/01/10 10:55:03;;;;;;;2.50;0.17;;;23.80;44.40;;;;;;4906319;28;45944;-56
2023/01/10 10:57:30;;;;;;;0.20;0.20;;;23.80;44.80;;;;;;4890040;28;45038;-55
2023/01/10 10:59:56;;;;;;;0.40;0.20;;;23.80;44.80;;;;;;4912645;28;45263;-56
2023/01/10 11:02:27;;;;;;;0.25;0.20;;;23.80;44.70;;;;;;4926433;28;45289;-53
2023/01/10 11:04:58;;;;;;;0.30;0.20;;;23.90;44.80;;;;;;4928686;28;45253;-53
2023/01/10 11:07:24;;;;;;;0.25;0.25;;;23.90;44.70;;;;;;4914464;28;45575;-51
2023/01/10 11:12:31;;;;;;;0.10;0.10;;;23.90;44.70;;;;;;4885223;28;45556;-51
2023/01/10 11:14:57;;;;;;;0.10;0.10;;;23.90;44.50;;;;;;4915458;28;45298;-54
2023/01/10 11:17:25;;;;;;;0.10;0.10;;;24.00;44.70;;;;;;4911445;28;45671;-55
2023/01/10 11:20:02;;;;;;;0.17;0.17;;;23.90;44.60;;;;;;4935142;28;45037;-56
2023/01/10 11:22:43;;;;;;;0.30;0.20;;;24.00;44.50;;;;;;4932614;28;44666;-54
2023/01/10 11:25:14;;;;;;;0.20;0.20;;;24.00;44.60;;;;;;4917779;28;46401;-53
2023/01/10 11:27:52;;;;;;;0.50;0.20;;;24.00;44.50;;;;;;4915466;28;45653;-52
2023/01/10 11:30:22;;;;;;;0.20;0.20;;;24.00;44.40;;;;;;4914784;28;45813;-55
2023/01/10 11:33:02;;;;;;;0.30;0.20;;;24.00;44.50;;;;;;4897476;28;45256;-51
2023/01/10 11:35:37;;;;;;;0.20;0.20;;;24.00;44.40;;;;;;4901735;28;46538;-54
2023/01/10 11:38:05;;;;;;;0.15;0.15;;;24.10;44.50;;;;;;4928645;28;45197;-52
2023/01/10 11:40:32;;;;;;;0.22;0.20;;;24.10;44.60;;;;;;4913421;28;45260;-50
2023/01/10 11:42:58;;;;;;;0.20;0.10;;;24.10;44.60;;;;;;4897758;28;45513;-56
2023/01/10 11:45:31;;;;;;;0.43;0.20;;;24.10;44.60;;;;;;4930547;28;45431;-53
2023/01/10 11:47:59;;;;;;;;;;;24.10;44.40;;;;;;4933594;28;45269;-53
2023/01/10 11:50:29;;;;;;;0.30;0.28;;;24.10;44.80;;;;;;4915935;28;45163;-52
2023/01/10 11:52:55;;;;;;;0.30;0.20;;;24.10;44.60;;;;;;4896150;28;44722;-59
2023/01/10 11:55:22;;;;;;;0.17;0.17;;;24.10;44.90;;;;;;4924650;28;45978;-54
2023/01/10 11:57:59;;;;;;;0.28;0.20;;;24.10;44.50;;;;;;4912671;28;45176;-54
2023/01/10 12:00:33;;;;;;;0.20;0.20;;;24.10;44.30;;;;;;4927630;28;45444;-51
2023/01/10 12:02:58;;;;;;;0.20;0.20;;;24.10;44.40;;;;;;4914412;28;45323;-53
2023/01/10 12:05:24;;;;;;;0.10;0.10;;;24.10;44.50;;;;;;4928333;28;46282;-52
2023/01/10 12:07:57;;;;;;;0.25;0.25;;;24.10;44.50;;;;;;4931869;28;45451;-50
2023/01/10 12:10:24;;;;;;;0.25;0.20;;;24.10;44.40;;;;;;4929111;28;45344;-50
2023/01/10 12:12:57;;;;;;;0.20;0.20;;;24.10;44.50;;;;;;4930741;28;45132;-51
2023/01/10 12:15:30;;;;;;;0.10;0.10;;;24.10;44.30;;;;;;4930880;28;46015;-55
2023/01/10 12:18:00;;;;;;;0.20;0.20;;;24.10;44.20;;;;;;4915932;28;45597;-54
2023/01/10 12:20:27;;;;;;;0.60;0.25;;;24.10;44.90;;;;;;4927710;28;45227;-54
2023/01/10 12:23:02;;;;;;;0.50;0.17;;;24.00;44.30;;;;;;4928668;28;45134;-52
2023/01/10 12:25:43;;;;;;;0.28;0.20;;;23.90;44.50;;;;;;4894293;28;46177;-51
2023/01/10 12:28:23;;;;;;;2.13;0.20;;;23.90;44.50;;;;;;4914080;28;45559;-53
2023/01/10 12:30:50;;;;;;;0.68;0.20;;;23.90;44.50;;;;;;4909212;28;45621;-55
2023/01/10 12:33:19;;;;;;;0.20;0.20;;;24.00;44.60;;;;;;4930291;28;45232;-55
2023/01/10 12:36:12;;;;;;;0.52;0.10;;;24.00;44.50;;;;;;4927430;28;46287;-50
2023/01/10 12:39:04;;;;;;;;;;;24.10;44.40;;;;;;4910135;28;45389;-54
2023/01/10 12:44:44;;;;;;;0.20;0.10;;;24.20;44.40;;;;;;4915422;28;44665;-56
2023/01/10 12:47:31;;;;;;;1.42;0.20;;;24.30;44.10;;;;;;4916238;28;47108;-53
2023/01/10 12:50:02;;;;;;;0.10;0.10;;;24.40;44.00;;;;;;4911245;28;45937;-53
2023/01/10 12:52:51;;;;;;;0.10;0.10;;;24.40;44.10;;;;;;4912890;28;45429;-53
2023/01/10 12:55:17;;;;;;;1.48;0.40;;;24.40;43.90;;;;;;4896407;28;45427;-53
2023/01/10 12:57:52;;;;;;;0.10;0.10;;;24.50;44.10;;;;;;4925399;28;45966;-54
2023/01/10 13:00:23;;;;;;;0.15;0.13;;;24.50;44.10;;;;;;4914251;28;45070;-55
2023/01/10 13:02:51;;;;;;;0.40;0.30;;;24.50;44.00;;;;;;4911379;28;45293;-54
2023/01/10 13:05:19;;;;;;;0.40;0.30;;;24.50;44.10;;;;;;4929493;28;45411;-55
2023/01/10 13:07:45;;;;;;;0.95;0.28;;;24.50;44.10;;;;;;4933052;28;46046;-54
2023/01/10 13:10:16;;;;;;;0.10;0.10;;;24.60;44.00;;;;;;4931621;28;45333;-53
2023/01/10 13:12:44;;;;;;;0.30;0.20;;;24.60;44.00;;;;;;4915948;28;45864;-55
2023/01/10 13:15:29;;;;;;;0.63;0.30;;;24.60;44.00;;;;;;4918424;28;44811;-55
2023/01/10 13:18:18;;;;;;;0.73;0.30;;;24.60;43.70;;;;;;4917787;28;46145;-53
2023/01/10 13:20:44;;;;;;;0.68;0.28;;;24.60;43.90;;;;;;4921285;28;44991;-54
2023/01/10 13:23:22;;;;;;;0.65;0.30;;;24.60;44.00;;;;;;4916857;28;45557;-53
2023/01/10 13:25:55;;;;;;;0.20;0.10;;;24.60;43.90;;;;;;4913329;28;45810;-52
2023/01/10 13:28:25;;;;;;;0.52;0.28;;;24.60;43.90;;;;;;4927777;28;46128;-53
2023/01/10 13:30:52;;;;;;;2.05;0.20;;;24.60;43.90;;;;;;4927822;28;45317;-56
2023/01/10 13:33:23;;;;;;;0.20;0.20;;;24.60;44.00;;;;;;4915008;28;45275;-60
2023/01/10 13:35:49;;;;;;;0.20;0.20;;;24.60;43.90;;;;;;4931673;28;45679;-54
2023/01/10 13:38:22;;;;;;;0.22;0.10;;;24.60;44.00;;;;;;4931495;28;45064;-51
2023/01/10 13:40:57;;;;;;;;;;;24.60;44.00;;;;;;4902752;28;44699;-51
2023/01/10 13:43:58;;;;;;;0.10;0.10;;;24.60;43.70;;;;;;4913849;28;44919;-54
2023/01/10 13:46:23;;;;;;;0.47;0.17;;;24.60;43.80;;;;;;4908555;28;44718;-52
2023/01/10 13:48:49;;;;;;;0.30;0.30;;;24.60;44.10;;;;;;4931349;28;45390;-52
2023/01/10 13:51:18;;;;;;;0.50;0.20;;;24.60;44.00;;;;;;4932849;28;44886;-50
2023/01/10 13:53:57;;;;;;;0.20;0.17;;;24.60;44.00;;;;;;4934197;28;44790;-54
2023/01/10 13:56:31;;;;;;;0.57;0.30;;;24.70;43.90;;;;;;4915781;28;45042;-52
2023/01/10 14:04:32;;;;;;;0.20;0.20;;;24.70;44.00;;;;;;4931522;28;45711;-51
2023/01/10 14:07:04;;;;;;;0.40;0.20;;;24.80;43.90;;;;;;4906776;28;46058;-51
2023/01/10 14:09:35;;;;;;;0.10;0.10;;;24.80;43.80;;;;;;4930365;28;45951;-52
2023/01/10 14:12:03;;;;;;;0.17;0.15;;;24.80;43.80;;;;;;4914659;28;45143;-54
2023/01/10 14:14:33;;;;;;;0.20;0.10;;;24.80;43.80;;;;;;4920220;28;45277;-52
2023/01/10 14:17:19;;;;;;;0.25;0.25;;;24.80;43.80;;;;;;4936485;28;45290;-53
2023/01/10 14:19:46;;;;;;;0.82;0.30;;;24.80;43.50;;;;;;4936254;28;46974;-53
2023/01/10 14:22:36;;;;;;;0.30;0.20;;;24.80;43.80;;;;;;4898345;28;45352;-54
2023/01/10 14:25:03;;;;;;;0.30;0.20;;;24.80;43.50;;;;;;4922011;28;48137;-52
2023/01/10 14:27:35;;;;;;;0.20;0.20;;;24.80;43.80;;;;;;4929079;28;45558;-54
2023/01/10 14:30:01;;;;;;;0.20;0.20;;;24.80;43.80;;;;;;4899810;28;46266;-54
2023/01/10 14:32:34;;;;;;;0.32;0.20;;;24.80;43.80;;;;;;4910999;28;45523;-53
2023/01/10 14:35:01;;;;;;;0.20;0.20;;;24.80;43.70;;;;;;4916850;28;46618;-57
2023/01/10 14:37:30;;;;;;;0.17;0.13;;;24.80;43.90;;;;;;4913739;28;45680;-52
2023/01/10 14:39:56;;;;;;;0.45;0.20;;;24.80;43.90;;;;;;4898381;28;45988;-51
2023/01/10 14:42:22;;;;;;;0.30;0.30;;;24.80;43.90;;;;;;4888586;28;45229;-53
2023/01/10 14:44:52;;;;;;;0.30;0.20;;;24.80;43.90;;;;;;4915963;28;45199;-53
2023/01/10 14:47:29;;;;;;;0.30;0.10;;;24.80;43.90;;;;;;4916765;28;45901;-56
2023/01/10 14:49:57;;;;;;;0.55;0.30;;;24.90;43.90;;;;;;4929389;28;45922;-53
2023/01/10 14:52:24;;;;;;;0.15;0.10;;;24.80;43.90;;;;;;4930573;28;45282;-53
2023/01/10 14:55:16;;;;;;;0.20;0.20;;;24.90;44.00;;;;;;4912805;28;45227;-51
2023/01/10 14:57:52;;;;;;;0.20;0.10;;;24.90;43.70;;;;;;4914736;28;45949;-51
2023/01/10 15:00:20;;;;;;;0.25;0.13;;;24.90;43.80;;;;;;4930321;28;46384;-56
2023/01/10 15:02:46;;;;;;;0.20;0.20;;;24.90;43.90;;;;;;4899931;28;45278;-50
2023/01/10 15:05:24;;;;;;;0.47;0.20;;;24.90;43.90;;;;;;4931480;28;45263;-52
2023/01/10 15:07:50;;;;;;;0.20;0.15;;;25.00;43.80;;;;;;4929755;28;44876;-54
2023/01/10 15:10:21;;;;;;;0.32;0.13;;;25.00;43.80;;;;;;4930815;28;46094;-53
2023/01/10 15:12:46;;;;;;;0.50;0.10;;;25.00;43.70;;;;;;4930359;28;45708;-54
2023/01/10 15:15:16;;;;;;;0.35;0.15;;;25.00;43.80;;;;;;4903881;28;45384;-53
2023/01/10 15:17:42;;;;;;;0.40;0.20;;;25.00;43.70;;;;;;4912939;28;45494;-54
2023/01/10 15:20:15;;;;;;;0.50;0.30;;;25.00;43.80;;;;;;4903699;28;46545;-50
2023/01/10 15:22:44;;;;;;;0.25;0.20;;;25.00;43.80;;;;;;4912156;28;44743;-53
2023/01/10 15:25:19;;;;;;;0.32;0.10;;;25.00;43.80;;;;;;4912539;28;45693;-54
2023/01/10 15:27:46;;;;;;;0.30;0.10;;;25.00;43.70;;;;;;4932259;28;44809;-53
2023/01/10 15:30:18;;;;;;;0.55;0.30;;;25.00;43.90;;;;;;4916085;28;45749;-52
2023/01/10 15:32:44;;;;;;;0.30;0.20;;;25.00;43.80;;;;;;4906373;28;44567;-57
2023/01/10 15:35:09;;;;;;;0.25;0.22;;;25.00;43.90;;;;;;4928951;28;45262;-52
2023/01/10 15:37:38;;;;;;;0.30;0.20;;;25.00;43.90;;;;;;4913419;28;44981;-57
2023/01/10 15:40:05;;;;;;;0.15;0.10;;;25.00;43.90;;;;;;4929348;28;45550;-51
2023/01/10 15:42:30;;;;;;;0.63;0.30;;;25.00;43.90;;;;;;4910856;28;44764;-53
2023/01/10 15:44:57;;;;;;;0.22;0.20;;;25.00;43.90;;;;;;4930790;28;48075;-51
2023/01/10 15:47:39;;;;;;;0.20;0.20;;;25.00;44.00;;;;;;4913406;28;45363;-52
2023/01/10 15:50:25;;;;;;;0.55;0.22;;;25.00;43.80;;;;;;4931091;28;45010;-51
2023/01/10 15:53:02;;;;;;;0.40;0.20;;;25.00;43.80;;;;;;4929625;28;45150;-52
2023/01/10 15:55:37;;;;;;;0.20;0.20;;;25.00;43.90;;;;;;4931875;28;45549;-51
2023/01/10 15:58:05;;;;;;;0.13;0.10;;;25.00;44.00;;;;;;4932792;28;46063;-54
2023/01/10 16:00:30;;;;;;;0.47;0.28;;;25.00;44.00;;;;;;4914531;28;46027;-54
2023/01/10 16:02:56;;;;;;;0.50;0.20;;;25.00;44.00;;;;;;4909186;28;45994;-53
2023/01/10 16:05:22;;;;;;;0.57;0.30;;;25.10;44.00;;;;;;4913464;28;45462;-54
2023/01/10 16:07:48;;;;;;;0.20;0.20;;;25.10;44.00;;;;;;4912339;28;45274;-54
2023/01/10 16:10:25;;;;;;;0.30;0.20;;;25.10;43.90;;;;;;4916585;28;46290;-53
2023/01/10 16:15:36;;;;;;;0.10;0.10;;;25.10;43.90;;;;;;4912189;28;45126;-52
2023/01/10 16:18:02;;;;;;;0.20;0.20;;;25.20;44.00;;;;;;4912012;28;46084;-57
2023/01/10 16:20:35;;;;;;;0.22;0.20;;;25.20;43.90;;;;;;4907956;28;46148;-56
2023/01/10 16:23:01;;;;;;;0.30;0.20;;;25.20;43.90;;;;;;4905940;28;45255;-54
2023/01/10 16:25:32;;;;;;;0.20;0.20;;;25.20;43.90;;;;;;4876887;28;45441;-54
2023/01/10 16:27:58;;;;;;;0.20;0.15;;;25.20;43.80;;;;;;4908784;28;45308;-54
2023/01/10 16:30:25;;;;;;;0.50;0.20;;;25.20;43.90;;;;;;4911265;28;45518;-52
2023/01/10 16:32:51;;;;;;;0.32;0.20;;;25.20;43.90;;;;;;4909781;28;45583;-55
2023/01/10 16:35:18;;;;;;;0.13;0.10;;;25.20;43.90;;;;;;4912947;28;45194;-55
2023/01/10 16:37:44;;;;;;;0.17;0.10;;;25.20;43.90;;;;;;4911585;28;45676;-52
2023/01/10 16:40:50;;;;;;;0.98;0.25;;;25.20;43.90;;;;;;4908083;28;46422;-54
2023/01/10 16:43:20;;;;;;;0.22;0.20;;;25.20;43.70;;;;;;4853336;29;45914;-53
2023/01/10 16:46:04;;;;;;;0.40;0.20;;;25.20;44.00;;;;;;4848941;29;46117;-53
2023/01/10 16:48:30;;;;;;;0.20;0.10;;;25.20;44.00;;;;;;4883348;28;45466;-50
2023/01/10 16:51:19;;;;;;;0.32;0.20;;;25.20;44.00;;;;;;4910461;28;47135;-54
2023/01/10 16:53:45;;;;;;;0.20;0.10;;;25.10;43.80;;;;;;4907095;28;45466;-54
2023/01/10 16:56:18;;;;;;;0.30;0.20;;;25.00;44.00;;;;;;4908386;28;45294;-53
2023/01/10 16:58:45;;;;;;;0.47;0.20;;;24.80;43.90;;;;;;4911828;28;44862;-55
2023/01/10 17:01:15;;;;;;;0.47;0.20;;;24.80;44.30;;;;;;4920232;28;45564;-52
2023/01/10 17:03:40;;;;;;;0.30;0.20;;;24.70;44.50;;;;;;4912482;28;44670;-51
2023/01/10 17:06:06;;;;;;;0.57;0.40;;;24.60;44.60;;;;;;4908727;28;45893;-51
2023/01/10 17:08:31;;;;;;;0.60;0.22;;;24.50;44.80;;;;;;4907396;28;45983;-62
2023/01/10 17:11:02;;;;;;;0.35;0.20;;;24.40;44.90;;;;;;4896307;28;46041;-58
2023/01/10 17:13:38;;;;;;;0.30;0.10;;;24.30;45.00;;;;;;4905992;28;45349;-58